createdAt,value
2022-10-09T00:00:50.078Z,49.03
2022-10-09T00:03:17.975Z,49.80
2022-10-09T00:05:45.509Z,47.55
2022-10-09T00:08:12.092Z,48.92
2022-10-09T00:10:42.984Z,50.17
2022-10-09T00:13:10.172Z,40.03
2022-10-09T00:15:41.771Z,41.70
2022-10-09T00:18:10.125Z,41.17
2022-10-09T00:20:43.171Z,45.22
2022-10-09T00:23:12.004Z,46.25
2022-10-09T00:25:38.680Z,39.85
2022-10-09T00:28:05.448Z,45.92
2022-10-09T00:30:32.444Z,47.72
2022-10-09T00:32:59.060Z,50.05
2022-10-09T00:35:25.991Z,48.50
2022-10-09T00:37:52.579Z,47.20
2022-10-09T00:40:19.298Z,49.80
2022-10-09T00:42:46.031Z,52.08
2022-10-09T00:45:20.500Z,44.83
2022-10-09T00:47:52.391Z,53.53
2022-10-09T00:52:57.407Z,51.47
2022-10-09T00:56:01.461Z,53.45
2022-10-09T00:58:28.097Z,52.10
2022-10-09T01:00:54.709Z,52.53
2022-10-09T01:03:21.282Z,53.28
2022-10-09T01:06:10.552Z,54.20
2022-10-09T01:09:00.300Z,57.15
2022-10-09T01:12:00.676Z,54.65
2022-10-09T01:14:39.311Z,51.65
2022-10-09T01:17:21.145Z,52.50
2022-10-09T01:20:01.212Z,52.67
2022-10-09T01:22:49.040Z,48.25
2022-10-09T01:25:24.226Z,52.40
2022-10-09T01:27:51.021Z,56.53
2022-10-09T01:30:17.764Z,57.42
2022-10-09T01:32:50.044Z,57.35
2022-10-09T01:35:17.984Z,54.45
2022-10-09T01:37:46.497Z,55.58
2022-10-09T01:40:16.337Z,61.22
2022-10-09T01:42:43.768Z,48.05
2022-10-09T01:45:10.889Z,54.33
2022-10-09T01:47:38.232Z,56.53
2022-10-09T01:50:16.052Z,54.83
2022-10-09T01:52:42.580Z,51.75
2022-10-09T01:55:34.312Z,46.78
2022-10-09T01:58:22.029Z,55.45
2022-10-09T02:00:56.475Z,54.40
2022-10-09T02:03:25.955Z,51.70
2022-10-09T02:05:54.545Z,56.50
2022-10-09T02:08:23.868Z,55.30
2022-10-09T02:10:54.248Z,55.50
2022-10-09T02:13:21.514Z,51.90
2022-10-09T02:16:22.912Z,56.83
2022-10-09T02:19:15.679Z,53.93
2022-10-09T02:21:59.600Z,54.25
2022-10-09T02:24:27.458Z,54.88
2022-10-09T02:26:56.215Z,56.45
2022-10-09T02:29:23.126Z,54.80
2022-10-09T02:31:49.821Z,55.35
2022-10-09T02:34:19.525Z,56.75
2022-10-09T02:36:47.447Z,56.25
2022-10-09T02:39:14.243Z,53.15
2022-10-09T02:41:40.941Z,56.30
2022-10-09T02:44:07.719Z,56.75
2022-10-09T02:46:35.110Z,59.20
2022-10-09T02:49:01.763Z,55.80
2022-10-09T02:51:28.907Z,58.03
2022-10-09T02:53:55.867Z,56.90
2022-10-09T02:56:23.727Z,54.92
2022-10-09T02:58:50.458Z,54.80
2022-10-09T03:01:17.786Z,56.33
2022-10-09T03:03:45.168Z,54.03
2022-10-09T03:06:17.769Z,53.33
2022-10-09T03:08:47.069Z,57.25
2022-10-09T03:15:05.276Z,57.30
2022-10-09T03:17:31.809Z,56.47
2022-10-09T03:19:58.320Z,50.83
2022-10-09T03:22:24.929Z,52.58
2022-10-09T03:24:51.489Z,52.35
2022-10-09T03:27:18.038Z,52.25
2022-10-09T03:29:44.646Z,54.55
2022-10-09T03:32:11.281Z,56.55
2022-10-09T03:34:37.903Z,56.17
2022-10-09T03:37:04.825Z,57.30
2022-10-09T03:39:32.227Z,54.80
2022-10-09T03:41:58.825Z,51.10
2022-10-09T03:44:25.358Z,54.78
2022-10-09T03:46:52.807Z,54.95
2022-10-09T03:49:19.469Z,52.17
2022-10-09T03:51:46.017Z,48.28
2022-10-09T03:54:12.619Z,49.90
2022-10-09T03:56:45.018Z,50.67
2022-10-09T03:59:11.628Z,55.67
2022-10-09T04:01:38.302Z,53.88
2022-10-09T04:04:04.937Z,51.30
2022-10-09T04:06:31.507Z,45.95
2022-10-09T04:08:58.085Z,54.90
2022-10-09T04:11:24.716Z,54.00
2022-10-09T04:13:51.301Z,56.22
2022-10-09T04:16:18.022Z,56.22
2022-10-09T04:18:44.866Z,56.22
2022-10-09T04:21:13.050Z,52.90
2022-10-09T04:23:39.940Z,47.58
2022-10-09T04:26:06.891Z,53.83
2022-10-09T04:28:33.826Z,54.67
2022-10-09T04:31:01.677Z,55.85
2022-10-09T04:33:28.667Z,55.15
2022-10-09T04:35:56.560Z,55.92
2022-10-09T04:38:24.472Z,59.63
2022-10-09T04:41:02.710Z,59.53
2022-10-09T04:43:30.069Z,58.67
2022-10-09T04:45:56.967Z,58.08
2022-10-09T04:48:24.091Z,55.80
2022-10-09T04:50:50.700Z,57.10
2022-10-09T04:53:17.553Z,57.80
2022-10-09T04:55:45.206Z,56.95
2022-10-09T04:58:13.169Z,58.92
2022-10-09T05:00:44.770Z,58.83
2022-10-09T05:03:11.860Z,59.22
2022-10-09T05:05:39.012Z,58.05
2022-10-09T05:08:06.235Z,58.00
2022-10-09T05:10:33.112Z,58.40
2022-10-09T05:12:59.970Z,55.85
2022-10-09T05:15:27.221Z,56.25
2022-10-09T05:17:53.867Z,56.55
2022-10-09T05:20:20.496Z,56.03
2022-10-09T05:22:48.110Z,54.78
2022-10-09T05:25:15.462Z,50.75
2022-10-09T05:27:42.049Z,55.00
2022-10-09T05:30:09.498Z,56.00
2022-10-09T05:32:36.160Z,53.67
2022-10-09T05:35:02.938Z,52.97
2022-10-09T05:37:29.532Z,52.17
2022-10-09T05:39:56.079Z,53.55
2022-10-09T05:42:22.626Z,50.70
2022-10-09T05:44:49.179Z,55.80
2022-10-09T05:47:17.947Z,55.42
2022-10-09T05:49:44.516Z,51.63
2022-10-09T05:52:11.146Z,52.38
2022-10-09T05:54:37.729Z,51.67
2022-10-09T05:57:04.986Z,52.97
2022-10-09T05:59:31.570Z,53.08
2022-10-09T06:01:59.214Z,45.03
2022-10-09T06:04:25.914Z,49.35
2022-10-09T06:06:52.713Z,48.17
2022-10-09T06:09:23.143Z,48.58
2022-10-09T06:11:51.165Z,50.55
2022-10-09T06:14:18.556Z,48.67
2022-10-09T06:16:45.725Z,48.42
2022-10-09T06:19:14.805Z,51.33
2022-10-09T06:21:42.108Z,50.15
2022-10-09T06:24:12.042Z,47.13
2022-10-09T06:26:38.608Z,49.85
2022-10-09T06:29:05.174Z,48.88
2022-10-09T06:31:33.629Z,48.30
2022-10-09T06:34:01.841Z,47.00
2022-10-09T06:36:30.850Z,47.83
2022-10-09T06:38:59.644Z,48.67
2022-10-09T06:41:32.908Z,46.03
2022-10-09T06:44:02.390Z,47.28
2022-10-09T06:46:32.339Z,45.63
2022-10-09T06:48:59.907Z,45.28
2022-10-09T06:51:28.132Z,42.85
2022-10-09T06:53:57.382Z,45.40
2022-10-09T06:56:25.738Z,44.33
2022-10-09T06:58:52.528Z,43.08
2022-10-09T07:01:24.023Z,43.63
2022-10-09T07:03:59.230Z,44.72
2022-10-09T07:06:31.357Z,40.58
2022-10-09T07:09:04.263Z,40.85
2022-10-09T07:11:33.651Z,40.33
2022-10-09T07:14:03.043Z,37.00
2022-10-09T07:16:35.928Z,38.92
2022-10-09T07:19:07.612Z,36.97
2022-10-09T07:24:02.266Z,38.30
2022-10-09T07:26:30.747Z,38.60
2022-10-09T07:28:58.038Z,37.55
2022-10-09T07:31:25.277Z,39.00
2022-10-09T07:33:53.975Z,39.45
2022-10-09T07:36:21.086Z,40.05
2022-10-09T07:38:53.156Z,38.05
2022-10-09T07:41:21.166Z,37.08
2022-10-09T07:43:47.792Z,37.42
2022-10-09T07:46:16.671Z,36.20
2022-10-09T07:48:44.067Z,36.65
2022-10-09T07:51:17.684Z,35.33
2022-10-09T07:53:45.323Z,33.38
2022-10-09T07:56:15.669Z,30.17
2022-10-09T07:58:43.036Z,30.55
2022-10-09T08:01:13.994Z,29.30
2022-10-09T08:03:42.913Z,30.98
2022-10-09T08:06:10.288Z,30.75
2022-10-09T08:08:36.900Z,28.23
2022-10-09T08:11:12.166Z,26.00
2022-10-09T08:13:39.603Z,26.58
2022-10-09T08:16:07.857Z,29.58
2022-10-09T08:18:35.207Z,26.33
2022-10-09T08:21:05.939Z,24.95
2022-10-09T08:23:32.543Z,22.50
2022-10-09T08:25:59.830Z,21.75
2022-10-09T08:28:26.575Z,22.33
2022-10-09T08:30:53.943Z,25.98
2022-10-09T08:33:22.195Z,24.27
2022-10-09T08:35:52.844Z,19.88
2022-10-09T08:38:45.667Z,21.45
2022-10-09T08:41:28.044Z,19.48
2022-10-09T08:44:02.824Z,19.98
2022-10-09T08:46:44.631Z,19.15
2022-10-09T08:51:46.365Z,21.30
2022-10-09T08:54:38.120Z,23.40
2022-10-09T08:57:19.817Z,24.80
2022-10-09T08:59:47.108Z,22.40
2022-10-09T09:02:19.537Z,23.83
2022-10-09T09:05:08.590Z,23.67
2022-10-09T09:08:00.132Z,20.40
2022-10-09T09:10:39.244Z,26.02
2022-10-09T09:13:33.238Z,23.60
2022-10-09T09:16:25.098Z,21.77
2022-10-09T09:19:33.369Z,23.63
2022-10-09T09:22:00.608Z,21.88
2022-10-09T09:24:39.295Z,22.33
2022-10-09T09:27:30.829Z,22.52
2022-10-09T09:30:01.319Z,21.40
2022-10-09T09:32:30.001Z,22.20
2022-10-09T09:35:29.637Z,22.00
2022-10-09T09:37:56.426Z,20.65
2022-10-09T09:40:38.859Z,19.10
2022-10-09T09:43:18.841Z,16.77
2022-10-09T09:45:46.487Z,21.05
2022-10-09T09:48:35.891Z,20.70
2022-10-09T09:51:29.298Z,23.05
2022-10-09T09:54:06.013Z,18.83
2022-10-09T09:59:37.111Z,20.15
2022-10-09T10:02:14.659Z,20.48
2022-10-09T10:05:01.782Z,20.10
2022-10-09T10:07:33.936Z,21.67
2022-10-09T10:10:24.686Z,22.23
2022-10-09T10:12:52.354Z,21.65
2022-10-09T10:15:25.735Z,23.05
2022-10-09T10:18:06.679Z,25.38
2022-10-09T10:20:45.149Z,25.25
2022-10-09T10:23:35.709Z,22.23
2022-10-09T10:26:09.130Z,22.92
2022-10-09T10:28:48.957Z,22.20
2022-10-09T10:31:38.383Z,19.02
2022-10-09T10:34:21.355Z,20.85
2022-10-09T10:37:00.999Z,17.40
2022-10-09T10:42:05.629Z,20.33
2022-10-09T10:44:52.159Z,20.85
2022-10-09T10:47:25.198Z,19.17
2022-10-09T10:49:52.004Z,15.85
2022-10-09T10:52:30.955Z,16.35
2022-10-09T10:55:05.885Z,14.50
2022-10-09T10:57:51.643Z,15.65
2022-10-09T11:00:18.577Z,19.73
2022-10-09T11:03:10.131Z,17.27
2022-10-09T11:05:40.942Z,16.42
2022-10-09T11:08:10.543Z,16.07
2022-10-09T11:10:54.774Z,16.77
2022-10-09T11:13:40.247Z,14.55
2022-10-09T11:16:24.066Z,15.32
2022-10-09T11:18:56.857Z,13.32
2022-10-09T11:21:50.635Z,13.73
2022-10-09T11:24:44.999Z,15.43
2022-10-09T11:27:40.116Z,13.98
2022-10-09T11:30:11.681Z,14.38
2022-10-09T11:35:29.306Z,14.55
2022-10-09T11:38:02.695Z,13.60
2022-10-09T11:40:33.950Z,13.63
2022-10-09T11:43:30.383Z,14.20
2022-10-09T11:46:09.530Z,12.95
2022-10-09T11:48:53.085Z,13.93
2022-10-09T11:51:29.344Z,12.52
2022-10-09T11:53:57.109Z,13.55
2022-10-09T11:56:27.464Z,11.93
2022-10-09T11:58:58.700Z,12.65
2022-10-09T12:01:48.100Z,13.70
2022-10-09T12:04:20.871Z,12.77
2022-10-09T12:07:01.045Z,15.60
2022-10-09T12:09:32.326Z,13.60
2022-10-09T12:12:04.113Z,13.98
2022-10-09T12:14:30.935Z,13.35
2022-10-09T12:16:59.452Z,12.88
2022-10-09T12:19:34.849Z,12.95
2022-10-09T12:22:05.032Z,12.90
2022-10-09T12:24:44.694Z,13.65
2022-10-09T12:27:38.378Z,11.68
2022-10-09T12:30:14.299Z,11.00
2022-10-09T12:32:46.963Z,11.85
2022-10-09T12:35:33.637Z,12.15
2022-10-09T12:38:00.891Z,12.65
2022-10-09T12:40:31.674Z,12.20
2022-10-09T12:43:01.368Z,13.73
2022-10-09T12:45:30.910Z,13.63
2022-10-09T12:48:00.212Z,13.30
2022-10-09T12:50:33.306Z,11.98
2022-10-09T12:53:03.719Z,14.23
2022-10-09T12:55:36.018Z,12.15
2022-10-09T12:58:14.466Z,11.30
2022-10-09T13:00:41.484Z,11.55
2022-10-09T13:03:22.787Z,11.43
2022-10-09T13:05:49.862Z,9.32
2022-10-09T13:08:31.032Z,10.73
2022-10-09T13:11:10.265Z,10.82
2022-10-09T13:13:38.033Z,11.00
2022-10-09T13:16:11.645Z,9.50
2022-10-09T13:18:39.102Z,10.63
2022-10-09T13:21:24.524Z,9.07
2022-10-09T13:23:52.254Z,11.77
2022-10-09T13:26:29.221Z,11.20
2022-10-09T13:28:59.276Z,12.38
2022-10-09T13:31:26.591Z,10.20
2022-10-09T13:33:53.852Z,9.95
2022-10-09T13:36:21.804Z,11.73
2022-10-09T13:38:50.235Z,11.90
2022-10-09T13:41:23.014Z,11.98
2022-10-09T13:43:51.197Z,12.38
2022-10-09T13:46:17.850Z,13.18
2022-10-09T13:48:45.262Z,12.35
2022-10-09T13:51:12.147Z,11.27
2022-10-09T13:53:39.513Z,12.38
2022-10-09T13:56:08.611Z,11.43
2022-10-09T13:58:36.305Z,12.93
2022-10-09T14:01:03.170Z,11.27
2022-10-09T14:03:30.585Z,11.40
2022-10-09T14:05:59.234Z,9.73
2022-10-09T14:08:26.514Z,8.90
2022-10-09T14:10:53.242Z,9.10
2022-10-09T14:13:21.260Z,9.38
2022-10-09T14:15:48.328Z,9.30
2022-10-09T14:18:15.556Z,9.20
2022-10-09T14:20:42.131Z,8.13
2022-10-09T14:23:09.999Z,8.70
2022-10-09T14:25:36.738Z,8.23
2022-10-09T14:28:04.271Z,7.22
2022-10-09T14:30:31.778Z,8.27
2022-10-09T14:32:59.346Z,7.07
2022-10-09T14:35:26.074Z,6.78
2022-10-09T14:37:53.435Z,6.45
2022-10-09T14:40:20.026Z,8.27
2022-10-09T14:42:47.772Z,8.40
2022-10-09T14:45:15.415Z,6.95
2022-10-09T14:47:42.042Z,6.80
2022-10-09T14:50:09.838Z,6.45
2022-10-09T14:52:37.385Z,6.63
2022-10-09T14:55:05.837Z,6.22
2022-10-09T14:57:35.386Z,6.55
2022-10-09T15:00:05.135Z,7.65
2022-10-09T15:02:33.638Z,6.80
2022-10-09T15:05:01.080Z,7.32
2022-10-09T15:07:28.253Z,32.88
2022-10-09T15:09:57.680Z,14.50
2022-10-09T15:12:24.221Z,10.48
2022-10-09T15:14:51.950Z,8.90
2022-10-09T15:17:18.547Z,8.70
2022-10-09T15:19:45.830Z,8.95
2022-10-09T15:22:12.409Z,9.20
2022-10-09T15:24:39.660Z,8.80
2022-10-09T15:27:06.246Z,8.13
2022-10-09T15:29:33.464Z,8.80
2022-10-09T15:32:02.105Z,8.90
2022-10-09T15:34:29.958Z,7.72
2022-10-09T15:36:56.594Z,7.85
2022-10-09T15:39:24.417Z,8.52
2022-10-09T15:41:50.985Z,7.65
2022-10-09T15:44:20.864Z,7.78
2022-10-09T15:46:48.793Z,7.95
2022-10-09T15:49:16.222Z,8.90
2022-10-09T15:51:43.074Z,12.88
2022-10-09T15:54:12.824Z,17.98
2022-10-09T15:56:40.504Z,19.08
2022-10-09T15:59:11.068Z,31.27
2022-10-09T16:01:37.726Z,23.45
2022-10-09T16:04:05.172Z,28.17
2022-10-09T16:06:31.722Z,30.58
2022-10-09T16:08:59.994Z,27.35
2022-10-09T16:11:27.251Z,30.13
2022-10-09T16:13:55.332Z,25.92
2022-10-09T16:16:25.102Z,26.58
2022-10-09T16:18:52.316Z,25.17
2022-10-09T16:21:25.894Z,25.27
2022-10-09T16:23:58.077Z,24.92
2022-10-09T16:26:26.884Z,24.17
2022-10-09T16:28:53.569Z,26.63
2022-10-09T16:31:30.923Z,25.42
2022-10-09T16:33:58.164Z,25.20
2022-10-09T16:36:25.517Z,25.77
2022-10-09T16:38:52.090Z,24.58
2022-10-09T16:41:22.415Z,26.50
2022-10-09T16:43:51.452Z,27.75
2022-10-09T16:46:25.672Z,37.05
2022-10-09T16:48:54.126Z,36.40
2022-10-09T16:51:27.848Z,39.55
2022-10-09T16:53:57.686Z,36.08
2022-10-09T16:56:29.002Z,32.92
2022-10-09T16:58:59.343Z,31.35
2022-10-09T17:01:28.734Z,29.83
2022-10-09T17:03:57.052Z,30.48
2022-10-09T17:06:25.068Z,33.65
2022-10-09T17:08:56.953Z,30.67
2022-10-09T17:11:26.439Z,30.80
2022-10-09T17:13:56.848Z,30.08
2022-10-09T17:16:26.857Z,33.67
2022-10-09T17:18:54.476Z,38.47
2022-10-09T17:21:22.504Z,36.83
2022-10-09T17:23:53.686Z,41.88
2022-10-09T17:26:25.286Z,44.35
2022-10-09T17:28:52.641Z,41.67
2022-10-09T17:31:23.321Z,43.97
2022-10-09T17:33:53.246Z,40.63
2022-10-09T17:36:23.012Z,40.75
2022-10-09T17:38:50.673Z,43.35
2022-10-09T17:41:20.058Z,43.05
2022-10-09T17:43:47.085Z,43.78
2022-10-09T17:46:15.629Z,39.63
2022-10-09T17:48:45.205Z,38.25
2022-10-09T17:51:19.306Z,36.22
2022-10-09T17:53:49.849Z,36.33
2022-10-09T17:56:17.948Z,37.45
2022-10-09T17:58:47.504Z,32.85
2022-10-09T18:01:17.021Z,31.70
2022-10-09T18:03:44.407Z,31.13
2022-10-09T18:06:16.258Z,29.60
2022-10-09T18:11:17.315Z,28.75
2022-10-09T18:13:44.996Z,30.38
2022-10-09T18:16:16.051Z,28.27
2022-10-09T18:18:43.683Z,32.90
2022-10-09T18:21:14.365Z,27.20
2022-10-09T18:23:40.935Z,28.75
2022-10-09T18:26:18.191Z,28.52
2022-10-09T18:28:48.250Z,29.02
2022-10-09T18:31:23.167Z,30.35
2022-10-09T18:33:50.809Z,31.92
2022-10-09T18:36:23.207Z,28.20
2022-10-09T18:38:55.502Z,28.30
2022-10-09T18:41:23.954Z,32.60
2022-10-09T18:43:51.903Z,33.95
2022-10-09T18:46:23.580Z,33.03
2022-10-09T18:48:51.564Z,34.53
2022-10-09T18:51:26.165Z,33.97
2022-10-09T18:53:57.840Z,32.25
2022-10-09T18:56:26.182Z,33.45
2022-10-09T18:58:52.924Z,31.95
2022-10-09T19:01:20.917Z,30.40
2022-10-09T19:03:50.124Z,31.08
2022-10-09T19:06:20.307Z,31.58
2022-10-09T19:08:47.005Z,38.10
2022-10-09T19:11:14.598Z,40.28
2022-10-09T19:13:47.153Z,40.38
2022-10-09T19:16:13.747Z,38.95
2022-10-09T19:18:41.296Z,40.75
2022-10-09T19:21:12.696Z,36.08
2022-10-09T19:23:39.997Z,39.10
2022-10-09T19:26:06.744Z,40.67
2022-10-09T19:28:39.268Z,39.75
2022-10-09T19:31:07.796Z,34.13
2022-10-09T19:33:35.865Z,38.45
2022-10-09T19:36:02.856Z,42.45
2022-10-09T19:38:30.470Z,36.90
2022-10-09T19:41:04.017Z,38.10
2022-10-09T19:43:34.171Z,38.50
2022-10-09T19:46:12.640Z,36.45
2022-10-09T19:48:40.151Z,36.72
2022-10-09T19:51:08.774Z,34.10
2022-10-09T19:53:36.832Z,36.30
2022-10-09T19:56:18.723Z,37.13
2022-10-09T19:58:51.115Z,37.70
2022-10-09T20:01:20.708Z,37.60
2022-10-09T20:03:49.633Z,37.47
2022-10-09T20:06:16.476Z,36.00
2022-10-09T20:08:45.920Z,38.75
2022-10-09T20:11:13.831Z,37.15
2022-10-09T20:13:43.165Z,38.33
2022-10-09T20:16:12.264Z,36.55
2022-10-09T20:18:41.764Z,38.72
2022-10-09T20:21:14.202Z,37.58
2022-10-09T20:23:42.094Z,36.08
2022-10-09T20:26:12.641Z,38.40
2022-10-09T20:28:40.230Z,39.08
2022-10-09T20:31:09.139Z,36.65
2022-10-09T20:33:38.725Z,36.22
2022-10-09T20:36:06.666Z,35.72
2022-10-09T20:38:34.924Z,34.70
2022-10-09T20:41:04.369Z,30.92
2022-10-09T20:43:31.759Z,30.83
2022-10-09T20:45:58.390Z,35.28
2022-10-09T20:48:25.723Z,39.22
2022-10-09T20:50:52.323Z,37.47
2022-10-09T20:53:19.707Z,35.25
2022-10-09T20:55:47.038Z,33.65
2022-10-09T20:58:14.443Z,35.22
2022-10-09T21:00:44.518Z,34.38
2022-10-09T21:03:13.050Z,35.70
2022-10-09T21:05:41.895Z,35.30
2022-10-09T21:08:09.706Z,33.15
2022-10-09T21:10:44.848Z,31.88
2022-10-09T21:13:12.552Z,30.80
2022-10-09T21:15:48.098Z,36.10
2022-10-09T21:18:17.152Z,33.60
2022-10-09T21:20:45.533Z,31.15
2022-10-09T21:23:14.930Z,28.30
2022-10-09T21:25:53.238Z,28.70
2022-10-09T21:28:22.926Z,31.20
2022-10-09T21:30:50.168Z,33.28
2022-10-09T21:33:18.567Z,31.52
2022-10-09T21:35:48.496Z,27.13
2022-10-09T21:38:20.607Z,29.80
2022-10-09T21:40:47.652Z,27.90
2022-10-09T21:43:14.990Z,29.23
2022-10-09T21:45:41.962Z,31.42
2022-10-09T21:48:10.549Z,30.65
2022-10-09T21:50:37.223Z,33.85
2022-10-09T21:53:04.724Z,32.22
2022-10-09T21:55:32.117Z,33.83
2022-10-09T21:57:58.786Z,31.90
2022-10-09T22:00:26.158Z,29.58
2022-10-09T22:02:53.110Z,33.10
2022-10-09T22:05:20.472Z,33.33
2022-10-09T22:07:47.079Z,28.92
2022-10-09T22:10:14.310Z,35.40
2022-10-09T22:12:40.864Z,33.20
2022-10-09T22:15:08.238Z,34.97
2022-10-09T22:17:34.805Z,38.28
2022-10-09T22:20:01.389Z,40.03
2022-10-09T22:22:27.961Z,38.15
2022-10-09T22:24:54.603Z,39.50
2022-10-09T22:27:21.453Z,41.13
2022-10-09T22:29:48.267Z,39.92
2022-10-09T22:32:15.044Z,42.80
2022-10-09T22:34:41.668Z,40.20
2022-10-09T22:37:08.308Z,38.60
2022-10-09T22:39:35.528Z,40.50
2022-10-09T22:42:02.151Z,37.80
2022-10-09T22:44:29.110Z,36.08
2022-10-09T22:46:55.665Z,35.13
2022-10-09T22:49:22.375Z,31.83
2022-10-09T22:51:49.074Z,38.88
2022-10-09T22:54:15.682Z,38.35
2022-10-09T22:56:44.974Z,40.00
2022-10-09T22:59:16.296Z,36.65
2022-10-09T23:01:49.083Z,37.92
2022-10-09T23:04:17.974Z,36.60
2022-10-09T23:06:45.308Z,39.97
2022-10-09T23:09:14.799Z,40.10
2022-10-09T23:11:42.166Z,40.38
2022-10-09T23:14:18.049Z,44.95
2022-10-09T23:16:44.612Z,36.58
2022-10-09T23:19:11.620Z,39.25
2022-10-09T23:21:40.858Z,36.63
2022-10-09T23:24:09.548Z,36.33
2022-10-09T23:26:38.216Z,36.10
2022-10-09T23:29:07.709Z,36.83
2022-10-09T23:31:35.189Z,34.70
2022-10-09T23:34:03.869Z,39.08
2022-10-09T23:36:30.621Z,45.20
2022-10-09T23:38:58.479Z,39.47
2022-10-09T23:41:27.113Z,43.40
2022-10-09T23:43:54.049Z,44.30
2022-10-09T23:46:29.336Z,47.33
2022-10-09T23:48:56.015Z,46.30
2022-10-09T23:51:25.043Z,46.65
2022-10-09T23:53:52.426Z,46.83
2022-10-09T23:56:20.954Z,47.33
2022-10-09T23:58:48.160Z,40.45
